Terminal Aerodrome Forecast
Issued by NWS Cleveland, OH

Home | Current Version | Previous Version | Text Only | Print | Product List | Glossary Off
Versions: 1 2 3 4 5 6 7 8 9 10 11 12 13 14 15 16 17 18 19 20 21 22 23 24 25 26 27 28 29 30 31 32 33 34 35

000
FTUS41 KCLE 251500 AAA
TAFCLE
TAF AMD
KCLE 251518Z 2515/2618 24015G25KT P6SM OVC030
     FM251900 24012G22KT P6SM OVC035
     FM260100 24007KT P6SM SCT035
     FM260900 VRB04KT P6SM OVC035
     FM261300 07004KT P6SM OVC025=

USA.gov is the U.S. government's official web portal to all federal, state and local government web resources and services.